Skip Navigation Links
NOAA logo - Click to go to the NOAA homepage
NOAA's National Weather Service
Alaska Aviation Weather Unit
  NWS logo - Click to go to the NWS homepage
Left Navbar Graphic     03 AKDT = 11 GMT

   
NOAA is celebrating 200 years of science, service, and stewardship. Visit the NOAA 200th celebration Web site to learn more.
USA.gov is the U.S. Government's official Web portal to all Federal, state and local government Web resources and services.
Facebook
NWS on Facebook

AAWU Home :: Display TAF Add Bookmark
TAF PAGS 290915Z 2909/3006 VRB03KT P6SM -SHRASN SCT025 OVC050
     FM291200 14010KT 6SM -SHRA BR OVC018 WS020/14025KT
     FM300300 18008KT P6SM -SHRA OVC030
      AMD LTD TO CLD VIS AND WIND=

SPECI PAGS 290522Z AUTO 05004KT 10SM -RA BKN029 BKN037 OVC047 03/02 A2979 RMK AO2 P0000= SPECI PAGS 290548Z AUTO 02004KT 10SM -RA SCT027 BKN039 OVC050 03/02 A2979 RMK AO2 P0000= METAR PAGS 290556Z AUTO 35003KT 10SM FEW027 BKN050 OVC065 03/02 A2979 RMK AO2 RAE55 SLP089 P0000 60000 T00280017 10072 20028 51004= METAR PAGS 290656Z AUTO 33004KT 10SM FEW034 BKN050 OVC070 02/02 A2979 RMK AO2 SLP088 T00220017 FZRANO= METAR PAGS 290856Z AUTO 00000KT 10SM UP OVC050 02/01 A2978 RMK AO2 UPE0759B29RAB0759E21 SLP086 P0000 60000 T00170011 400720000 55003 FZRANO= METAR PAGS 290956Z AUTO 11006KT 10SM -RA SCT027 BKN035 OVC042 03/02 A2979 RMK AO2 UPE08B25E47RAB08E25B47 SLP088 P0000 T00280022= SPECI PAGS 291017Z AUTO 12005KT 10SM -RA BKN027 OVC035 03/02 A2979 RMK AO2 P0000= METAR PAGS 291056Z AUTO 10006KT 10SM -RA BKN025 BKN030 OVC036 03/03 A2978 RMK AO2 SLP085 P0000 T00330028=
 Alaska TAF Map

NOAA's National Weather Service
Alaska Aviation Weather Unit
6930 Sand Lake Road
Anchorage, AK 99502-1845
Disclaimer
Credits
Glossary
Privacy Policy
About Us
Career Opportunities
Contact AAWU Internet Services Site last modified: April, 17th 2012